Time;durP1;ratioP1;P1;durP2;ratioP2;P2;SDS_P1;SDS_P2;PMS_P1;PMS_P2;Temp;Humidity;BMP_temperature;BMP_pressure;BME280_temperature;BME280_humidity;BME280_pressure;Samples;Min_cycle;Max_cycle;Signal;HPM_P1;HPM_P2
2021/04/24 00:01:29;;;;;;;14.53;8.97;;;5.20;81.80;;;;;;5111307;28;20564;-72
2021/04/24 00:03:56;;;;;;;14.17;8.83;;;5.10;81.80;;;;;;5111331;28;20048;-72
2021/04/24 00:06:22;;;;;;;14.93;8.70;;;5.20;81.90;;;;;;5112283;28;20625;-72
2021/04/24 00:08:48;;;;;;;15.07;8.90;;;5.10;81.80;;;;;;5110910;28;20384;-72
2021/04/24 00:11:14;;;;;;;16.90;9.90;;;5.10;82.10;;;;;;5111502;28;20418;-73
2021/04/24 00:13:39;;;;;;;16.53;8.97;;;5.10;82.30;;;;;;5112101;28;20072;-73
2021/04/24 00:16:05;;;;;;;16.70;9.80;;;5.10;82.50;;;;;;5110728;28;20043;-73
2021/04/24 00:18:31;;;;;;;16.17;10.70;;;5.10;82.50;;;;;;5111955;28;20044;-73
2021/04/24 00:20:56;;;;;;;16.33;8.23;;;5.10;82.50;;;;;;5111350;28;20040;-73
2021/04/24 00:23:22;;;;;;;17.70;10.17;;;5.10;82.60;;;;;;5110959;28;20058;-73
2021/04/24 00:25:48;;;;;;;16.10;8.77;;;5.10;82.50;;;;;;5111420;28;20097;-73
2021/04/24 00:28:13;;;;;;;17.43;9.30;;;5.10;83.40;;;;;;5111409;28;20130;-73
2021/04/24 00:30:40;;;;;;;18.20;9.60;;;5.00;82.60;;;;;;5111009;28;20093;-72
2021/04/24 00:33:07;;;;;;;18.60;10.50;;;5.00;82.70;;;;;;5111436;28;20297;-73
2021/04/24 00:35:32;;;;;;;16.37;9.30;;;4.90;82.80;;;;;;5111626;28;20816;-73
2021/04/24 00:37:58;;;;;;;16.33;8.57;;;4.90;83.00;;;;;;5110434;28;20294;-73
2021/04/24 00:40:24;;;;;;;15.40;9.43;;;4.90;83.10;;;;;;5111658;28;20154;-73
2021/04/24 00:42:50;;;;;;;17.80;9.50;;;4.90;83.10;;;;;;5111151;28;20485;-73
2021/04/24 00:45:20;;;;;;;15.33;9.30;;;4.80;83.20;;;;;;5110743;28;20388;-73
2021/04/24 00:47:46;;;;;;;16.10;8.73;;;4.90;83.30;;;;;;5111237;28;20043;-72
2021/04/24 00:50:15;;;;;;;16.60;8.87;;;4.80;83.30;;;;;;5111193;28;20312;-73
2021/04/24 00:52:41;;;;;;;15.60;8.60;;;4.80;83.50;;;;;;5110921;28;20375;-72
2021/04/24 00:55:07;;;;;;;15.73;9.33;;;4.80;83.40;;;;;;5111301;28;20302;-73
2021/04/24 00:57:34;;;;;;;16.40;9.03;;;4.80;83.40;;;;;;5110706;28;20051;-72
2021/04/24 01:00:00;;;;;;;16.60;9.23;;;4.90;83.60;;;;;;5111025;28;20289;-72
2021/04/24 01:02:26;;;;;;;20.07;9.87;;;4.80;83.40;;;;;;5113474;28;20354;-72
2021/04/24 01:04:52;;;;;;;16.17;8.67;;;4.80;83.60;;;;;;5114136;28;20047;-72
2021/04/24 01:07:18;;;;;;;15.20;10.10;;;4.80;83.60;;;;;;5114760;28;20043;-72
2021/04/24 01:09:44;;;;;;;17.80;9.90;;;4.80;83.60;;;;;;5115129;28;20377;-72
2021/04/24 01:12:09;;;;;;;16.33;10.20;;;4.70;83.80;;;;;;5113924;28;20039;-72
2021/04/24 01:14:35;;;;;;;17.00;9.70;;;4.70;83.90;;;;;;5115184;28;20055;-72
2021/04/24 01:17:01;;;;;;;17.90;10.53;;;4.70;84.10;;;;;;5114416;28;20293;-73
2021/04/24 01:19:28;;;;;;;15.70;10.80;;;4.70;84.30;;;;;;5114167;28;20047;-72
2021/04/24 01:22:04;;;;;;;16.73;10.27;;;4.70;84.30;;;;;;5114588;28;20446;-73
2021/04/24 01:24:29;;;;;;;19.37;10.30;;;4.60;84.60;;;;;;5115064;28;20309;-72
2021/04/24 01:26:56;;;;;;;17.70;9.70;;;4.60;84.70;;;;;;5113881;28;20290;-73
2021/04/24 01:29:21;;;;;;;17.63;10.13;;;4.60;84.70;;;;;;5115019;28;20297;-73
2021/04/24 01:31:47;;;;;;;15.40;9.37;;;4.60;84.80;;;;;;5114379;28;20048;-72
2021/04/24 01:34:13;;;;;;;15.83;9.70;;;4.60;84.80;;;;;;5113643;28;20305;-73
2021/04/24 01:36:39;;;;;;;16.67;9.07;;;4.50;84.80;;;;;;5114146;28;20067;-72
2021/04/24 01:39:05;;;;;;;18.20;10.20;;;4.50;85.00;;;;;;5113734;28;20044;-73
2021/04/24 01:41:32;;;;;;;15.57;9.40;;;4.50;85.20;;;;;;5113689;28;20377;-72
2021/04/24 01:43:58;;;;;;;14.83;10.07;;;4.40;85.30;;;;;;5114006;28;20314;-73
2021/04/24 01:46:24;;;;;;;18.93;10.37;;;4.50;85.50;;;;;;5114594;28;20286;-73
2021/04/24 01:48:51;;;;;;;13.57;9.10;;;4.50;85.50;;;;;;5113625;28;20051;-73
2021/04/24 01:51:17;;;;;;;18.23;9.83;;;4.50;85.50;;;;;;5114047;28;20118;-73
2021/04/24 01:53:43;;;;;;;15.27;9.83;;;4.50;86.40;;;;;;5113598;28;20369;-72
2021/04/24 01:56:10;;;;;;;17.50;10.27;;;4.50;85.60;;;;;;5114229;28;20051;-72
2021/04/24 01:58:36;;;;;;;16.60;9.87;;;4.40;85.60;;;;;;5114207;28;20123;-72
2021/04/24 02:01:06;;;;;;;14.90;9.30;;;4.40;85.60;;;;;;5112883;28;20499;-72
2021/04/24 02:03:32;;;;;;;18.37;9.30;;;4.40;85.70;;;;;;5114033;28;20047;-72
2021/04/24 02:05:58;;;;;;;15.20;8.20;;;4.40;85.80;;;;;;5113378;28;20317;-73
2021/04/24 02:08:30;;;;;;;18.73;9.63;;;4.40;85.70;;;;;;5113466;28;20104;-72
2021/04/24 02:10:56;;;;;;;16.20;8.60;;;4.40;85.70;;;;;;5113382;28;20319;-73
2021/04/24 02:13:29;;;;;;;15.43;9.53;;;4.40;85.80;;;;;;5113651;28;20297;-73
2021/04/24 02:15:55;;;;;;;15.97;9.20;;;4.40;85.90;;;;;;5112562;28;20301;-73
2021/04/24 02:18:21;;;;;;;14.70;9.20;;;4.40;86.00;;;;;;5113677;28;20689;-73
2021/04/24 02:20:47;;;;;;;20.23;9.27;;;4.40;86.90;;;;;;5113458;28;20718;-74
2021/04/24 02:23:14;;;;;;;14.23;9.00;;;4.40;86.00;;;;;;5112745;28;20404;-73
2021/04/24 02:25:42;;;;;;;16.83;8.70;;;4.30;86.10;;;;;;5113847;28;20069;-73
2021/04/24 02:28:08;;;;;;;18.07;9.30;;;4.30;86.20;;;;;;5113448;28;20658;-73
2021/04/24 02:30:35;;;;;;;13.93;8.40;;;4.30;87.10;;;;;;5112880;28;20777;-73
2021/04/24 02:33:02;;;;;;;20.33;8.87;;;4.30;86.30;;;;;;5112783;28;20391;-73
2021/04/24 02:35:37;;;;;;;15.03;8.20;;;4.30;86.50;;;;;;5113584;28;20324;-72
2021/04/24 02:38:03;;;;;;;15.87;8.87;;;4.30;86.50;;;;;;5112248;28;20699;-72
2021/04/24 02:40:29;;;;;;;12.50;7.67;;;4.20;86.50;;;;;;5113476;28;20297;-72
2021/04/24 02:42:55;;;;;;;17.37;8.63;;;4.30;86.70;;;;;;5112079;28;20651;-72
2021/04/24 02:45:20;;;;;;;16.57;8.33;;;4.30;86.90;;;;;;5113263;28;20111;-72
2021/04/24 02:47:46;;;;;;;16.07;7.73;;;4.30;86.80;;;;;;5112986;28;20054;-72
2021/04/24 02:50:16;;;;;;;15.17;7.87;;;4.30;86.90;;;;;;5112280;28;20103;-72
2021/04/24 02:52:43;;;;;;;16.33;8.53;;;4.20;86.90;;;;;;5112957;28;20074;-72
2021/04/24 02:55:10;;;;;;;14.83;8.57;;;4.20;86.90;;;;;;5112729;28;20308;-72
2021/04/24 02:57:39;;;;;;;15.23;7.87;;;4.20;87.10;;;;;;5112291;28;20294;-72
2021/04/24 03:00:13;;;;;;;15.47;8.30;;;4.20;87.20;;;;;;5112115;28;20297;-72
2021/04/24 03:02:38;;;;;;;21.93;9.70;;;4.20;87.20;;;;;;5112934;28;20354;-72
2021/04/24 03:05:08;;;;;;;12.10;7.83;;;4.20;87.30;;;;;;5111708;28;20293;-72
2021/04/24 03:07:34;;;;;;;13.20;8.40;;;4.10;87.30;;;;;;5112947;28;20063;-72
2021/04/24 03:10:00;;;;;;;15.57;8.60;;;4.10;87.30;;;;;;5112327;28;21252;-72
2021/04/24 03:12:25;;;;;;;17.57;7.70;;;4.10;87.30;;;;;;5111882;28;20043;-72
2021/04/24 03:14:51;;;;;;;19.77;8.50;;;4.20;87.40;;;;;;5112549;28;20404;-72
2021/04/24 03:17:17;;;;;;;15.23;8.37;;;4.20;87.50;;;;;;5112344;28;20485;-72
2021/04/24 03:19:42;;;;;;;15.63;9.43;;;4.20;87.40;;;;;;5111692;28;20050;-72
2021/04/24 03:22:08;;;;;;;15.33;9.03;;;4.10;87.40;;;;;;5112303;28;20059;-72
2021/04/24 03:24:34;;;;;;;16.13;8.67;;;4.10;87.50;;;;;;5111863;28;20100;-72
2021/04/24 03:26:59;;;;;;;15.47;8.03;;;4.10;87.50;;;;;;5111079;28;20097;-73
2021/04/24 03:29:25;;;;;;;16.37;8.80;;;4.10;87.80;;;;;;5112692;28;20043;-72
2021/04/24 03:31:50;;;;;;;15.40;9.10;;;4.10;87.70;;;;;;5112015;28;20067;-72
2021/04/24 03:34:17;;;;;;;17.17;8.73;;;4.10;87.80;;;;;;5111524;28;20389;-72
2021/04/24 03:36:42;;;;;;;14.57;8.87;;;4.20;88.00;;;;;;5112027;28;20297;-72
2021/04/24 03:39:09;;;;;;;19.07;9.60;;;4.10;88.00;;;;;;5111270;28;20126;-72
2021/04/24 03:41:34;;;;;;;17.03;8.20;;;4.10;88.10;;;;;;5112043;28;20129;-73
2021/04/24 03:44:00;;;;;;;15.27;8.77;;;4.10;88.00;;;;;;5111758;28;20879;-72
2021/04/24 03:46:25;;;;;;;15.57;8.53;;;4.10;88.00;;;;;;5111397;28;20079;-72
2021/04/24 03:48:51;;;;;;;14.17;8.47;;;4.10;88.00;;;;;;5111995;28;20130;-72
2021/04/24 03:51:17;;;;;;;12.27;8.00;;;4.10;88.10;;;;;;5111708;28;20510;-73
2021/04/24 03:53:43;;;;;;;17.13;9.03;;;4.10;87.90;;;;;;5110958;28;20052;-73
2021/04/24 03:56:08;;;;;;;18.43;8.70;;;4.20;88.00;;;;;;5111741;28;20047;-73
2021/04/24 03:58:34;;;;;;;17.10;8.97;;;4.10;88.10;;;;;;5112081;28;20123;-73
2021/04/24 04:01:00;;;;;;;11.80;8.53;;;4.10;88.10;;;;;;5110868;28;20757;-73
2021/04/24 04:03:25;;;;;;;12.23;7.60;;;4.10;88.10;;;;;;5112107;28;20461;-72
2021/04/24 04:05:51;;;;;;;19.47;9.77;;;4.10;88.10;;;;;;5111549;28;20047;-72
2021/04/24 04:08:18;;;;;;;19.87;9.80;;;4.10;88.10;;;;;;5109673;28;20052;-72
2021/04/24 04:10:45;;;;;;;13.30;9.20;;;4.10;88.10;;;;;;5111429;28;20475;-73
2021/04/24 04:13:12;;;;;;;13.70;9.07;;;4.10;88.10;;;;;;5111721;28;20328;-73
2021/04/24 04:15:38;;;;;;;17.73;11.13;;;4.10;88.10;;;;;;5110767;28;20297;-71
2021/04/24 04:18:10;;;;;;;18.53;10.47;;;4.10;88.00;;;;;;5110960;28;20293;-72
2021/04/24 04:20:39;;;;;;;14.27;9.45;;;4.10;88.10;;;;;;5109631;28;20403;-72
2021/04/24 04:23:05;;;;;;;18.13;9.63;;;4.10;88.00;;;;;;5110574;28;20051;-72
2021/04/24 04:25:31;;;;;;;17.93;9.67;;;4.10;87.90;;;;;;5111926;28;20296;-72
2021/04/24 04:27:57;;;;;;;18.07;9.87;;;4.10;88.10;;;;;;5109549;28;20049;-72
2021/04/24 04:30:24;;;;;;;14.47;8.93;;;4.10;88.10;;;;;;5110572;28;20062;-72
2021/04/24 04:32:49;;;;;;;15.00;9.37;;;4.10;88.10;;;;;;5110940;28;20559;-72
2021/04/24 04:35:18;;;;;;;13.90;9.53;;;4.10;88.10;;;;;;5111613;28;20412;-72
2021/04/24 04:37:44;;;;;;;14.63;9.33;;;4.20;88.30;;;;;;5114908;28;20359;-72
2021/04/24 04:40:13;;;;;;;14.20;8.57;;;4.10;88.20;;;;;;5115323;28;20297;-72
2021/04/24 04:42:39;;;;;;;15.93;9.87;;;4.20;88.40;;;;;;5111689;28;20978;-72
2021/04/24 04:45:06;;;;;;;14.63;10.07;;;4.20;88.50;;;;;;5114328;28;20293;-72
2021/04/24 04:47:32;;;;;;;17.10;10.17;;;4.20;88.50;;;;;;5115285;28;20389;-72
2021/04/24 04:49:57;;;;;;;15.47;9.17;;;4.30;88.60;;;;;;5114042;28;20388;-72
2021/04/24 04:52:23;;;;;;;17.03;9.90;;;4.20;88.50;;;;;;5114878;28;20051;-72
2021/04/24 04:54:49;;;;;;;15.27;9.67;;;4.30;88.60;;;;;;5114961;28;20070;-72
2021/04/24 04:57:15;;;;;;;15.10;9.17;;;4.30;88.60;;;;;;5114195;28;20492;-72
2021/04/24 04:59:41;;;;;;;16.43;9.77;;;4.30;88.70;;;;;;5114701;28;20046;-72
2021/04/24 05:02:07;;;;;;;17.00;8.83;;;4.30;88.60;;;;;;5114669;27;20046;-72
2021/04/24 05:04:33;;;;;;;18.77;9.83;;;4.40;88.70;;;;;;5114093;28;20317;-72
2021/04/24 05:07:00;;;;;;;17.33;10.27;;;4.40;88.60;;;;;;5114315;28;20123;-72
2021/04/24 05:09:25;;;;;;;18.03;10.27;;;4.40;88.60;;;;;;5115053;28;20343;-72
2021/04/24 05:11:52;;;;;;;13.50;8.93;;;4.50;88.80;;;;;;5113513;28;20812;-72
2021/04/24 05:14:17;;;;;;;14.80;9.30;;;4.50;88.90;;;;;;5114395;28;20051;-72
2021/04/24 05:16:44;;;;;;;12.87;8.87;;;4.50;88.80;;;;;;5114436;28;20304;-72
2021/04/24 05:19:10;;;;;;;16.83;10.33;;;4.60;88.90;;;;;;5113637;28;20109;-72
2021/04/24 05:21:36;;;;;;;13.90;9.50;;;4.70;89.00;;;;;;5114651;28;20313;-72
2021/04/24 05:24:06;;;;;;;16.57;10.03;;;4.80;89.10;;;;;;5113995;28;20313;-72
2021/04/24 05:26:32;;;;;;;15.73;9.97;;;4.90;88.90;;;;;;5113861;28;20305;-73
2021/04/24 05:28:57;;;;;;;14.33;9.23;;;5.00;88.70;;;;;;5113855;28;20293;-72
2021/04/24 05:31:25;;;;;;;15.50;10.30;;;5.10;88.80;;;;;;5114430;28;20316;-72
2021/04/24 05:33:51;;;;;;;11.90;7.93;;;5.20;89.10;;;;;;5112321;28;20112;-73
2021/04/24 05:36:19;;;;;;;14.47;9.03;;;5.50;89.10;;;;;;5114054;28;20297;-72
2021/04/24 05:38:45;;;;;;;19.70;9.53;;;5.90;88.60;;;;;;5113107;28;20321;-72
2021/04/24 05:41:13;;;;;;;16.00;9.60;;;6.20;88.10;;;;;;5113824;28;20293;-72
2021/04/24 05:43:42;;;;;;;15.77;10.23;;;6.50;87.80;;;;;;5114181;28;20301;-72
2021/04/24 05:46:07;;;;;;;15.90;9.70;;;6.80;87.10;;;;;;5113074;28;20328;-72
2021/04/24 05:48:33;;;;;;;12.03;8.90;;;7.20;86.20;;;;;;5113162;27;20825;-72
2021/04/24 05:50:59;;;;;;;17.03;8.53;;;7.50;85.20;;;;;;5113499;28;20051;-73
2021/04/24 05:53:25;;;;;;;15.40;9.80;;;7.80;84.60;;;;;;5113437;28;20052;-72
2021/04/24 05:55:53;;;;;;;14.60;8.67;;;8.10;83.70;;;;;;5110957;28;20044;-73
2021/04/24 05:58:18;;;;;;;16.40;8.70;;;8.40;82.80;;;;;;5113528;28;20286;-73
2021/04/24 06:00:44;;;;;;;12.80;9.13;;;8.30;81.80;;;;;;5112669;28;20054;-72
2021/04/24 06:03:09;;;;;;;12.20;8.63;;;8.20;81.70;;;;;;5113103;28;20047;-72
2021/04/24 06:05:35;;;;;;;12.53;8.33;;;8.10;82.60;;;;;;5113891;28;20054;-72
2021/04/24 06:08:01;;;;;;;13.10;8.90;;;7.90;82.00;;;;;;5112080;28;20047;-72
2021/04/24 06:10:26;;;;;;;11.63;7.70;;;7.80;82.20;;;;;;5113418;28;20054;-72
2021/04/24 06:12:52;;;;;;;13.77;7.93;;;7.80;82.40;;;;;;5113310;28;20127;-72
2021/04/24 06:15:23;;;;;;;13.13;8.70;;;7.80;82.20;;;;;;5112690;28;20439;-73
2021/04/24 06:17:49;;;;;;;16.27;8.32;;;7.70;82.00;;;;;;5113050;28;20046;-72
2021/04/24 06:20:15;;;;;;;15.17;8.40;;;7.70;82.10;;;;;;5111839;28;20134;-72
2021/04/24 06:22:41;;;;;;;13.57;8.50;;;7.70;82.20;;;;;;5112705;28;20131;-73
2021/04/24 06:25:11;;;;;;;15.27;10.00;;;7.80;82.30;;;;;;5113230;28;20635;-73
2021/04/24 06:27:36;;;;;;;18.37;9.30;;;7.80;82.20;;;;;;5108222;28;20300;-73
2021/04/24 06:30:07;;;;;;;18.77;8.77;;;7.90;81.90;;;;;;5111980;28;20305;-73
2021/04/24 06:32:35;;;;;;;12.23;8.03;;;8.00;81.70;;;;;;5110711;28;20081;-73
2021/04/24 06:35:00;;;;;;;13.23;8.50;;;8.00;81.70;;;;;;5111891;28;20333;-73
2021/04/24 06:37:26;;;;;;;11.90;7.50;;;8.10;81.90;;;;;;5112888;28;20758;-72
2021/04/24 06:39:52;;;;;;;13.93;8.23;;;8.20;81.90;;;;;;5112781;28;20294;-73
2021/04/24 06:42:18;;;;;;;14.17;7.37;;;8.30;81.60;;;;;;5112245;28;20059;-72
2021/04/24 06:44:44;;;;;;;14.73;7.10;;;8.40;81.10;;;;;;5112981;28;20100;-73
2021/04/24 06:47:13;;;;;;;14.03;7.70;;;8.50;80.60;;;;;;5113013;28;20043;-73
2021/04/24 06:49:39;;;;;;;11.27;5.40;;;8.60;80.90;;;;;;5112384;28;20297;-72
2021/04/24 06:52:05;;;;;;;11.77;6.37;;;8.70;80.30;;;;;;5112677;28;20389;-73
2021/04/24 06:54:31;;;;;;;11.77;5.23;;;8.70;78.50;;;;;;5113277;28;20051;-73
2021/04/24 06:56:57;;;;;;;13.53;5.20;;;8.60;77.80;;;;;;5111766;28;20316;-73
2021/04/24 06:59:23;;;;;;;11.77;4.50;;;8.60;77.30;;;;;;5111676;28;20400;-73
2021/04/24 07:01:49;;;;;;;13.23;5.50;;;8.70;77.10;;;;;;5112492;28;20074;-73
2021/04/24 07:04:14;;;;;;;14.17;5.30;;;8.80;77.00;;;;;;5111668;28;20060;-73
2021/04/24 07:06:40;;;;;;;14.43;4.90;;;9.20;74.50;;;;;;5112793;28;20343;-73
2021/04/24 07:09:06;;;;;;;13.63;5.13;;;9.40;74.10;;;;;;5112524;28;20128;-72
2021/04/24 07:11:32;;;;;;;12.60;4.57;;;9.40;73.10;;;;;;5112048;28;20477;-72
2021/04/24 07:13:57;;;;;;;12.87;4.37;;;9.40;72.10;;;;;;5111917;28;20047;-73
2021/04/24 07:16:23;;;;;;;12.00;4.23;;;9.40;71.60;;;;;;5112709;28;20063;-73
2021/04/24 07:18:49;;;;;;;10.67;4.20;;;9.40;70.50;;;;;;5111623;28;20084;-73
2021/04/24 07:21:14;;;;;;;10.97;4.60;;;9.30;70.40;;;;;;5111726;28;20059;-72
2021/04/24 07:23:41;;;;;;;10.50;4.27;;;9.30;70.90;;;;;;5112113;28;20051;-72
2021/04/24 07:26:08;;;;;;;10.73;4.13;;;9.50;70.40;;;;;;5111229;28;20507;-73
2021/04/24 07:28:33;;;;;;;12.33;4.30;;;9.50;70.30;;;;;;5112269;28;20297;-74
2021/04/24 07:30:59;;;;;;;12.07;4.53;;;9.50;70.10;;;;;;5111593;28;20388;-72
2021/04/24 07:33:25;;;;;;;16.20;6.30;;;9.40;69.70;;;;;;5111131;28;20059;-72
2021/04/24 07:35:52;;;;;;;13.90;4.70;;;9.10;69.90;;;;;;5112006;28;20500;-73
2021/04/24 07:38:19;;;;;;;10.57;4.57;;;8.90;70.60;;;;;;5111276;28;20301;-72
2021/04/24 07:40:46;;;;;;;11.23;5.47;;;8.80;70.80;;;;;;5111953;28;20385;-72
2021/04/24 07:43:12;;;;;;;13.87;4.43;;;8.70;71.10;;;;;;5111807;28;20395;-72
2021/04/24 07:45:38;;;;;;;14.20;3.87;;;8.80;70.90;;;;;;5111345;28;20384;-72
2021/04/24 07:48:05;;;;;;;10.23;4.33;;;8.80;72.00;;;;;;5111645;28;20681;-72
2021/04/24 07:50:31;;;;;;;10.97;4.77;;;8.90;70.70;;;;;;5112132;28;20778;-72
2021/04/24 07:52:56;;;;;;;10.87;4.33;;;9.10;70.60;;;;;;5110798;28;20289;-73
2021/04/24 07:55:22;;;;;;;11.97;4.90;;;9.40;70.10;;;;;;5111984;28;20051;-72
2021/04/24 07:57:48;;;;;;;10.50;4.80;;;9.80;69.90;;;;;;5111467;28;20046;-72
2021/04/24 08:00:14;;;;;;;11.80;4.50;;;10.30;69.30;;;;;;5110787;28;20509;-72
2021/04/24 08:02:40;;;;;;;11.73;4.33;;;10.40;67.50;;;;;;5112145;28;20389;-72
2021/04/24 08:05:06;;;;;;;13.23;4.60;;;10.60;67.80;;;;;;5111707;28;20316;-72
2021/04/24 08:07:31;;;;;;;12.83;4.07;;;10.90;67.50;;;;;;5111230;28;20053;-72
2021/04/24 08:09:57;;;;;;;14.93;4.57;;;11.30;66.50;;;;;;5110829;28;20055;-72
2021/04/24 08:12:23;;;;;;;13.93;4.97;;;11.40;65.10;;;;;;5111679;28;20055;-72
2021/04/24 08:14:49;;;;;;;9.60;4.23;;;11.60;65.90;;;;;;5111081;28;20104;-72
2021/04/24 08:17:15;;;;;;;11.27;4.80;;;11.80;66.00;;;;;;5111572;28;20138;-73
2021/04/24 08:19:41;;;;;;;13.17;4.40;;;12.00;65.00;;;;;;5111896;28;20047;-73
2021/04/24 08:22:08;;;;;;;12.47;4.80;;;12.10;64.10;;;;;;5110970;28;20044;-73
2021/04/24 08:24:34;;;;;;;12.77;4.67;;;12.20;63.60;;;;;;5111784;28;20074;-72
2021/04/24 08:27:00;;;;;;;16.57;5.50;;;12.20;63.50;;;;;;5111000;28;20044;-72
2021/04/24 08:29:26;;;;;;;14.07;5.07;;;12.10;63.70;;;;;;5110544;28;20036;-71
2021/04/24 08:31:52;;;;;;;13.90;4.73;;;12.10;63.40;;;;;;5110968;28;20070;-72
2021/04/24 08:34:20;;;;;;;15.37;4.60;;;12.10;63.50;;;;;;5110493;28;20048;-72
2021/04/24 08:36:46;;;;;;;13.73;4.93;;;12.30;63.90;;;;;;5110028;28;20054;-71
2021/04/24 08:39:12;;;;;;;12.20;4.47;;;12.70;63.00;;;;;;5110935;28;20052;-71
2021/04/24 08:41:38;;;;;;;12.50;5.67;;;12.90;62.30;;;;;;5109987;28;20044;-72
2021/04/24 08:44:04;;;;;;;12.90;4.90;;;12.70;62.00;;;;;;5110614;28;20047;-71
2021/04/24 08:46:30;;;;;;;14.23;5.37;;;12.70;61.30;;;;;;5111237;28;20044;-73
2021/04/24 08:48:57;;;;;;;16.20;5.07;;;12.60;61.00;;;;;;5109505;28;20043;-73
2021/04/24 08:51:25;;;;;;;14.80;5.27;;;12.70;61.80;;;;;;5108012;28;20430;-72
2021/04/24 08:53:51;;;;;;;16.83;5.00;;;12.70;60.70;;;;;;5110696;28;20046;-72
2021/04/24 08:56:18;;;;;;;15.33;4.93;;;12.70;61.20;;;;;;5109539;28;20484;-70
2021/04/24 08:58:45;;;;;;;14.20;4.50;;;12.60;60.80;;;;;;5108044;28;20092;-72
2021/04/24 09:01:10;;;;;;;11.90;4.37;;;12.80;60.60;;;;;;5110647;28;20039;-70
2021/04/24 09:03:37;;;;;;;15.03;4.87;;;12.70;58.60;;;;;;5109705;28;20450;-70
2021/04/24 09:06:05;;;;;;;14.77;5.20;;;12.50;58.00;;;;;;5107332;28;20044;-72
2021/04/24 09:08:31;;;;;;;14.33;4.30;;;12.50;58.60;;;;;;5110710;28;20048;-72
2021/04/24 09:11:02;;;;;;;11.37;4.67;;;12.50;58.40;;;;;;5109665;28;20047;-74
2021/04/24 09:13:30;;;;;;;16.13;4.80;;;12.50;58.50;;;;;;5108770;28;20502;-73
2021/04/24 09:15:57;;;;;;;11.87;3.93;;;12.50;58.40;;;;;;5110070;28;20083;-75
2021/04/24 09:18:24;;;;;;;13.20;4.40;;;12.50;57.70;;;;;;5110089;28;20043;-74
2021/04/24 09:20:56;;;;;;;10.93;4.37;;;12.30;56.80;;;;;;5110226;28;20044;-74
2021/04/24 09:23:34;;;;;;;10.18;4.38;;;12.30;57.30;;;;;;5112652;28;20077;-74
2021/04/24 09:26:06;;;;;;;10.97;3.43;;;12.40;57.30;;;;;;5112993;28;20043;-73
2021/04/24 09:28:40;;;;;;;11.70;3.60;;;12.60;55.30;;;;;;5114257;28;20527;-72
2021/04/24 09:31:13;;;;;;;10.43;3.73;;;12.60;54.10;;;;;;5113252;28;20043;-73
2021/04/24 09:33:40;;;;;;;11.60;3.80;;;12.60;53.80;;;;;;5113848;28;20099;-73
2021/04/24 09:36:08;;;;;;;9.93;3.70;;;12.50;54.60;;;;;;5113733;28;20400;-74
2021/04/24 09:38:37;;;;;;;10.50;3.87;;;12.30;54.10;;;;;;5113247;28;20381;-72
2021/04/24 09:41:25;;;;;;;11.97;4.17;;;12.30;54.70;;;;;;5110579;28;20055;-73
2021/04/24 09:44:13;;;;;;;10.80;2.93;;;12.40;54.70;;;;;;5113375;28;20043;-73
2021/04/24 09:46:47;;;;;;;12.60;2.93;;;12.40;52.60;;;;;;5113336;28;20044;-73
2021/04/24 09:49:24;;;;;;;9.23;2.50;;;12.40;51.00;;;;;;5113631;28;20043;-73
2021/04/24 09:52:04;;;;;;;6.87;2.13;;;12.40;51.70;;;;;;5110994;28;20096;-73
2021/04/24 09:54:45;;;;;;;10.23;2.80;;;12.40;50.70;;;;;;5111672;28;20044;-74
2021/04/24 09:57:19;;;;;;;7.45;2.17;;;12.40;48.80;;;;;;5111574;28;20066;-77
2021/04/24 09:59:54;;;;;;;8.73;2.33;;;12.40;48.80;;;;;;5110334;28;20047;-75
2021/04/24 10:02:44;;;;;;;7.87;2.20;;;12.50;47.60;;;;;;5113288;28;20048;-73
2021/04/24 10:05:24;;;;;;;8.70;2.27;;;12.50;46.90;;;;;;5111457;28;20039;-73
2021/04/24 10:07:54;;;;;;;8.17;2.40;;;12.50;48.70;;;;;;5110866;28;20365;-74
2021/04/24 10:10:29;;;;;;;9.97;2.10;;;12.40;48.10;;;;;;5113292;28;20054;-73
2021/04/24 10:12:58;;;;;;;4.73;2.17;;;12.20;45.90;;;;;;5112422;28;20477;-71
2021/04/24 10:15:44;;;;;;;6.43;2.20;;;12.10;46.80;;;;;;5110199;28;20040;-70
2021/04/24 10:18:12;;;;;;;4.50;1.83;;;12.10;47.40;;;;;;5111440;28;20093;-70
2021/04/24 10:20:40;;;;;;;4.03;1.70;;;12.10;45.70;;;;;;5112854;28;20468;-70
2021/04/24 10:23:07;;;;;;;4.47;1.43;;;12.20;45.60;;;;;;5113212;28;20115;-71
2021/04/24 10:25:34;;;;;;;5.60;1.93;;;12.30;44.40;;;;;;5113319;28;20058;-72
2021/04/24 10:28:00;;;;;;;5.00;1.57;;;12.20;44.80;;;;;;5112164;28;20510;-72
2021/04/24 10:30:27;;;;;;;6.13;1.53;;;12.30;44.30;;;;;;5113435;28;20488;-71
2021/04/24 10:32:53;;;;;;;6.83;1.83;;;12.40;44.30;;;;;;5112374;28;20051;-71
2021/04/24 10:35:20;;;;;;;5.50;1.90;;;12.30;43.90;;;;;;5112694;28;20044;-71
2021/04/24 10:37:52;;;;;;;3.30;1.50;;;12.30;44.40;;;;;;5112913;28;20044;-71
2021/04/24 10:40:18;;;;;;;;;;;12.40;44.20;;;;;;5113577;28;20074;-72
2021/04/24 10:42:51;;;;;;;8.23;4.27;;;12.40;43.20;;;;;;5111023;28;19920;-73
2021/04/24 10:45:27;;;;;;;;;;;12.20;43.10;;;;;;5111639;28;20100;-73
2021/04/24 10:47:54;;;;;;;6.20;1.77;;;12.10;42.60;;;;;;5112843;27;20018;-73
2021/04/24 10:50:46;;;;;;;6.10;1.77;;;12.00;43.80;;;;;;5112552;28;20118;-73
2021/04/24 10:53:29;;;;;;;4.80;1.65;;;12.00;44.30;;;;;;5112903;28;20493;-73
2021/04/24 10:55:59;;;;;;;5.33;2.30;;;12.00;43.90;;;;;;5111876;28;20047;-73
2021/04/24 10:58:28;;;;;;;3.70;1.80;;;11.90;43.90;;;;;;5112875;28;20055;-74
2021/04/24 11:00:55;;;;;;;9.03;2.20;;;12.00;44.30;;;;;;5112627;28;20518;-73
2021/04/24 11:03:42;;;;;;;7.47;1.93;;;12.10;44.80;;;;;;5111785;28;20043;-75
2021/04/24 11:06:13;;;;;;;9.93;2.13;;;12.10;44.90;;;;;;5112576;28;20058;-72
2021/04/24 11:08:40;;;;;;;8.13;2.30;;;12.10;45.30;;;;;;5112648;28;20393;-73
2021/04/24 11:11:13;;;;;;;10.13;2.30;;;12.00;46.10;;;;;;5111871;28;20054;-73
2021/04/24 11:13:41;;;;;;;6.53;1.80;;;12.20;45.80;;;;;;5112876;28;20036;-75
2021/04/24 11:16:10;;;;;;;9.90;3.10;;;12.30;45.80;;;;;;5112550;28;20163;-72
2021/04/24 11:18:37;;;;;;;6.80;2.53;;;12.50;46.90;;;;;;5111990;28;20047;-73
2021/04/24 11:21:22;;;;;;;8.17;2.10;;;12.60;47.20;;;;;;5111597;27;20509;-72
2021/04/24 11:23:54;;;;;;;5.53;2.60;;;12.50;46.70;;;;;;5111079;28;20156;-72
2021/04/24 11:26:30;;;;;;;9.57;2.53;;;12.40;45.70;;;;;;5112259;28;20071;-72
2021/04/24 11:28:56;;;;;;;11.87;2.27;;;12.30;45.60;;;;;;5111348;28;20077;-72
2021/04/24 11:31:42;;;;;;;7.83;2.87;;;12.30;47.10;;;;;;5111431;28;20128;-71
2021/04/24 11:34:24;;;;;;;7.40;2.63;;;12.30;47.30;;;;;;5100713;28;20055;-72
2021/04/24 11:37:14;;;;;;;8.00;2.40;;;12.30;47.50;;;;;;5111748;27;20095;-72
2021/04/24 11:40:06;;;;;;;9.80;2.83;;;12.30;46.80;;;;;;5111518;28;20101;-72
2021/04/24 11:42:35;;;;;;;5.97;2.22;;;12.10;47.90;;;;;;5111727;28;20552;-73
2021/04/24 11:45:03;;;;;;;7.90;2.27;;;12.10;47.50;;;;;;5109975;28;20059;-72
2021/04/24 11:47:43;;;;;;;6.80;2.63;;;12.20;48.00;;;;;;5112261;28;20039;-73
2021/04/24 11:50:14;;;;;;;6.20;1.93;;;12.40;47.30;;;;;;5111679;28;20050;-72
2021/04/24 11:52:50;;;;;;;5.67;2.00;;;12.30;46.30;;;;;;5111167;28;20051;-72
2021/04/24 11:55:19;;;;;;;6.93;2.43;;;12.20;46.20;;;;;;5111385;28;20065;-72
2021/04/24 11:57:44;;;;;;;6.47;1.83;;;12.20;46.40;;;;;;5111558;28;20045;-73
2021/04/24 12:00:10;;;;;;;7.37;2.23;;;12.30;46.70;;;;;;5110918;28;20048;-72
2021/04/24 12:02:36;;;;;;;6.57;1.90;;;12.40;47.00;;;;;;5111360;28;20044;-72
2021/04/24 12:05:11;;;;;;;7.53;2.43;;;12.50;46.30;;;;;;5111123;28;20079;-72
2021/04/24 12:07:41;;;;;;;11.33;3.03;;;12.40;45.70;;;;;;5110852;28;20176;-73
2021/04/24 12:10:08;;;;;;;9.43;3.30;;;12.30;47.90;;;;;;5111256;28;20134;-72
2021/04/24 12:12:46;;;;;;;8.63;2.40;;;12.30;47.80;;;;;;5110977;28;20052;-71
2021/04/24 12:15:22;;;;;;;7.83;2.50;;;12.30;47.80;;;;;;5111303;28;20069;-72
2021/04/24 12:17:52;;;;;;;7.87;2.77;;;12.20;47.60;;;;;;5111177;28;20044;-72
2021/04/24 12:20:38;;;;;;;11.87;2.87;;;12.10;47.20;;;;;;5110131;28;20156;-72
2021/04/24 12:23:06;;;;;;;7.83;2.20;;;12.10;47.10;;;;;;5110987;28;20047;-72
2021/04/24 12:25:34;;;;;;;9.07;2.57;;;12.00;47.10;;;;;;5111800;28;20055;-72
2021/04/24 12:28:04;;;;;;;6.70;2.43;;;12.00;46.50;;;;;;5110309;28;20132;-72
2021/04/24 12:30:35;;;;;;;7.83;2.17;;;12.00;47.30;;;;;;5111270;28;20075;-72
2021/04/24 12:33:03;;;;;;;6.60;2.33;;;12.00;48.20;;;;;;5110677;28;20058;-73
2021/04/24 12:35:31;;;;;;;6.60;2.80;;;12.00;48.00;;;;;;5110565;28;20044;-72
2021/04/24 12:37:59;;;;;;;7.67;2.07;;;11.90;47.30;;;;;;5110827;28;20040;-72
2021/04/24 12:40:26;;;;;;;12.00;2.67;;;11.80;45.90;;;;;;5111196;28;20048;-74
2021/04/24 12:42:52;;;;;;;8.90;2.80;;;11.80;45.80;;;;;;5110493;28;20043;-73
2021/04/24 12:45:22;;;;;;;5.07;2.10;;;11.80;46.10;;;;;;5110990;28;20083;-72
2021/04/24 12:47:50;;;;;;;7.87;2.63;;;11.70;46.50;;;;;;5110190;28;20043;-73
2021/04/24 12:50:29;;;;;;;6.70;2.57;;;11.90;46.40;;;;;;5110859;28;20054;-73